createdAt,value
2022-08-03T00:01:20.152Z,3.80
2022-08-03T00:04:06.067Z,3.40
2022-08-03T00:06:51.848Z,2.92
2022-08-03T00:09:38.523Z,3.30
2022-08-03T00:12:24.241Z,3.38
2022-08-03T00:15:14.240Z,3.10
2022-08-03T00:18:02.830Z,3.60
2022-08-03T00:20:49.074Z,3.42
2022-08-03T00:23:51.652Z,3.47
2022-08-03T00:26:38.420Z,2.90
2022-08-03T00:29:24.478Z,3.60
2022-08-03T00:32:11.035Z,3.30
2022-08-03T00:34:59.037Z,3.50
2022-08-03T00:37:45.188Z,2.63
2022-08-03T00:40:31.007Z,3.40
2022-08-03T00:43:17.328Z,3.15
2022-08-03T00:46:03.121Z,2.78
2022-08-03T00:48:52.724Z,3.00
2022-08-03T00:51:39.834Z,2.72
2022-08-03T00:54:26.155Z,2.80
2022-08-03T00:57:11.771Z,3.97
2022-08-03T00:59:57.939Z,3.90
2022-08-03T01:02:44.353Z,3.40
2022-08-03T01:05:32.383Z,3.60
2022-08-03T01:08:53.958Z,3.30
2022-08-03T01:12:01.205Z,3.33
2022-08-03T01:15:09.783Z,2.90
2022-08-03T01:17:59.679Z,3.60
2022-08-03T01:20:49.281Z,3.55
2022-08-03T01:24:03.627Z,3.30
2022-08-03T01:27:12.905Z,3.53
2022-08-03T01:30:17.061Z,3.20
2022-08-03T01:33:07.776Z,3.83
2022-08-03T01:36:13.278Z,3.90
2022-08-03T01:39:02.108Z,4.00
2022-08-03T01:42:00.004Z,3.55
2022-08-03T01:44:48.818Z,4.00
2022-08-03T01:47:35.995Z,3.40
2022-08-03T01:50:27.395Z,3.60
2022-08-03T01:53:17.086Z,3.67
2022-08-03T01:56:03.913Z,3.38
2022-08-03T01:58:51.369Z,3.90
2022-08-03T02:02:29.117Z,3.65
2022-08-03T02:04:46.377Z,3.60
2022-08-03T02:07:34.512Z,4.07
2022-08-03T02:10:34.361Z,4.00
2022-08-03T02:13:22.126Z,4.18
2022-08-03T02:16:09.661Z,4.10
2022-08-03T02:18:57.891Z,4.10
2022-08-03T02:21:56.286Z,4.32
2022-08-03T02:24:49.330Z,4.32
2022-08-03T02:27:43.691Z,4.53
2022-08-03T02:30:39.246Z,3.90
2022-08-03T02:33:33.080Z,4.63
2022-08-03T02:36:29.436Z,4.35
2022-08-03T02:39:20.620Z,3.97
2022-08-03T02:42:12.885Z,3.78
2022-08-03T02:45:02.578Z,4.07
2022-08-03T02:47:53.509Z,4.30
2022-08-03T02:50:42.166Z,4.40
2022-08-03T02:53:28.621Z,3.72
2022-08-03T02:56:16.302Z,3.75
2022-08-03T02:59:03.487Z,3.88
2022-08-03T03:01:49.904Z,3.70
2022-08-03T03:04:36.353Z,3.85
2022-08-03T03:07:22.544Z,3.67
2022-08-03T03:10:10.387Z,3.75
2022-08-03T03:12:58.361Z,3.47
2022-08-03T03:15:47.105Z,3.15
2022-08-03T03:18:35.296Z,3.43
2022-08-03T03:21:22.147Z,3.20
2022-08-03T03:24:09.571Z,3.33
2022-08-03T03:26:57.022Z,2.92
2022-08-03T03:29:43.785Z,2.90
2022-08-03T03:32:30.509Z,3.27
2022-08-03T03:35:17.216Z,2.55
2022-08-03T03:38:03.483Z,2.70
2022-08-03T03:40:50.023Z,2.70
2022-08-03T03:43:36.116Z,2.83
2022-08-03T03:46:22.865Z,2.97
2022-08-03T03:49:09.413Z,2.60
2022-08-03T03:51:55.980Z,2.77
2022-08-03T03:54:44.118Z,2.90
2022-08-03T03:57:30.378Z,2.85
2022-08-03T04:00:18.146Z,2.70
2022-08-03T04:03:03.830Z,2.63
2022-08-03T04:06:08.167Z,3.13
2022-08-03T04:09:12.529Z,2.50
2022-08-03T04:12:02.153Z,2.40
2022-08-03T04:14:49.476Z,2.72
2022-08-03T04:17:36.695Z,2.70
2022-08-03T04:20:24.537Z,2.40
2022-08-03T04:23:12.774Z,2.50
2022-08-03T04:26:03.510Z,2.58
2022-08-03T04:28:51.351Z,3.05
2022-08-03T04:31:39.923Z,2.90
2022-08-03T04:34:26.168Z,3.00
2022-08-03T04:37:34.497Z,2.92
2022-08-03T04:40:34.570Z,3.45
2022-08-03T04:43:22.645Z,3.28
2022-08-03T04:46:09.955Z,3.03
2022-08-03T04:48:57.690Z,3.42
2022-08-03T04:51:45.046Z,2.92
2022-08-03T04:54:31.487Z,3.20
2022-08-03T04:57:22.822Z,3.03
2022-08-03T05:00:10.105Z,3.00
2022-08-03T05:02:55.998Z,3.33
2022-08-03T05:05:50.584Z,2.97
2022-08-03T05:08:46.047Z,3.35
2022-08-03T05:11:33.046Z,3.50
2022-08-03T05:14:18.812Z,3.20
2022-08-03T05:17:13.824Z,3.05
2022-08-03T05:20:01.104Z,3.43
2022-08-03T05:22:47.531Z,3.25
2022-08-03T05:25:33.729Z,3.30
2022-08-03T05:28:19.822Z,3.20
2022-08-03T05:31:06.352Z,3.38
2022-08-03T05:33:52.636Z,3.15
2022-08-03T05:36:39.810Z,3.08
2022-08-03T05:39:25.304Z,3.40
2022-08-03T05:42:11.577Z,3.30
2022-08-03T05:44:57.893Z,3.40
2022-08-03T05:47:45.186Z,3.92
2022-08-03T05:50:31.753Z,3.78
2022-08-03T05:53:18.006Z,3.40
2022-08-03T05:56:14.220Z,4.10
2022-08-03T05:59:16.334Z,3.90
2022-08-03T06:02:07.046Z,4.30
2022-08-03T06:04:52.991Z,3.73
2022-08-03T06:07:39.224Z,4.00
2022-08-03T06:10:37.355Z,3.45
2022-08-03T06:13:24.434Z,3.47
2022-08-03T06:16:10.306Z,3.83
2022-08-03T06:18:56.638Z,3.58
2022-08-03T06:21:43.118Z,3.53
2022-08-03T06:24:31.418Z,3.58
2022-08-03T06:27:17.386Z,3.22
2022-08-03T06:30:03.821Z,3.38
2022-08-03T06:32:52.136Z,3.80
2022-08-03T06:35:38.799Z,3.55
2022-08-03T06:38:29.229Z,3.50
2022-08-03T06:41:15.666Z,3.60
2022-08-03T06:44:03.465Z,3.35
2022-08-03T06:46:51.313Z,3.40
2022-08-03T06:49:38.386Z,3.35
2022-08-03T06:52:38.494Z,3.30
2022-08-03T06:55:24.303Z,3.45
2022-08-03T06:58:09.752Z,3.60
2022-08-03T07:00:56.181Z,3.45
2022-08-03T07:03:52.293Z,3.83
2022-08-03T07:06:39.185Z,3.78
2022-08-03T07:09:26.433Z,3.38
2022-08-03T07:12:12.269Z,3.33
2022-08-03T07:15:02.550Z,3.42
2022-08-03T07:17:50.103Z,3.45
2022-08-03T07:20:35.944Z,3.30
2022-08-03T07:23:21.271Z,3.78
2022-08-03T07:26:06.724Z,5.03
2022-08-03T07:28:53.395Z,3.33
2022-08-03T07:31:40.062Z,2.80
2022-08-03T07:34:25.625Z,3.00
2022-08-03T07:37:11.380Z,3.70
2022-08-03T07:39:58.463Z,2.97
2022-08-03T07:42:44.844Z,2.97
2022-08-03T07:45:31.897Z,2.72
2022-08-03T07:48:17.590Z,2.33
2022-08-03T07:51:05.684Z,2.58
2022-08-03T07:53:52.928Z,2.40
2022-08-03T07:56:39.033Z,1.73
2022-08-03T07:59:25.281Z,2.30
2022-08-03T08:02:11.788Z,2.00
2022-08-03T08:05:00.047Z,2.00
2022-08-03T08:07:51.620Z,1.60
2022-08-03T08:10:38.314Z,1.90
2022-08-03T08:13:24.779Z,2.10
2022-08-03T08:16:10.660Z,1.20
2022-08-03T08:18:56.630Z,2.13
2022-08-03T08:21:54.055Z,1.80
2022-08-03T08:24:49.217Z,1.70
2022-08-03T08:28:30.486Z,2.17
2022-08-03T08:30:56.717Z,1.60
2022-08-03T08:34:03.147Z,1.57
2022-08-03T08:36:48.464Z,1.70
2022-08-03T08:39:34.516Z,1.50
2022-08-03T08:42:20.416Z,1.52
2022-08-03T08:45:08.711Z,1.30
2022-08-03T08:48:01.666Z,0.95
2022-08-03T08:50:53.575Z,1.10
2022-08-03T08:53:43.962Z,0.98
2022-08-03T08:56:32.599Z,0.90
2022-08-03T08:59:19.381Z,0.80
2022-08-03T09:02:05.814Z,1.00
2022-08-03T09:04:53.140Z,1.20
2022-08-03T09:07:39.095Z,1.07
2022-08-03T09:10:25.043Z,1.00
2022-08-03T09:13:10.880Z,0.80
2022-08-03T09:16:13.352Z,0.88
2022-08-03T09:19:15.202Z,0.90
2022-08-03T09:22:10.835Z,1.08
2022-08-03T09:25:22.810Z,1.08
2022-08-03T09:28:06.500Z,1.02
2022-08-03T09:30:59.694Z,1.10
2022-08-03T09:33:48.958Z,0.70
2022-08-03T09:36:39.275Z,0.77
2022-08-03T09:39:41.973Z,0.70
2022-08-03T09:42:27.965Z,0.90
2022-08-03T09:45:26.966Z,0.80
2022-08-03T09:48:27.341Z,0.73
2022-08-03T09:52:29.512Z,0.50
2022-08-03T09:54:29.370Z,0.50
2022-08-03T09:57:26.541Z,1.00
2022-08-03T10:00:14.740Z,1.13
2022-08-03T10:03:05.858Z,1.20
2022-08-03T10:05:54.806Z,0.85
2022-08-03T10:08:43.703Z,0.93
2022-08-03T10:11:31.350Z,0.80
2022-08-03T10:14:20.641Z,0.60
2022-08-03T10:17:07.223Z,0.80
2022-08-03T10:19:53.515Z,0.70
2022-08-03T10:22:41.411Z,0.80
2022-08-03T10:25:32.993Z,0.63
2022-08-03T10:28:21.391Z,0.65
2022-08-03T10:31:08.508Z,0.60
2022-08-03T10:33:58.055Z,0.60
2022-08-03T10:36:45.931Z,0.85
2022-08-03T10:39:32.496Z,0.60
2022-08-03T10:42:18.388Z,0.53
2022-08-03T10:45:07.528Z,0.63
2022-08-03T10:47:56.043Z,0.40
2022-08-03T10:50:43.503Z,0.50
2022-08-03T10:53:39.179Z,0.50
2022-08-03T10:56:52.283Z,0.60
2022-08-03T10:59:48.462Z,0.40
2022-08-03T11:03:03.615Z,0.40
2022-08-03T11:05:49.681Z,0.50
2022-08-03T11:08:35.640Z,0.57
2022-08-03T11:11:23.587Z,0.80
2022-08-03T11:14:09.142Z,0.60
2022-08-03T11:17:08.333Z,0.80
2022-08-03T11:20:01.299Z,0.60
2022-08-03T11:22:54.531Z,0.40
2022-08-03T11:26:22.620Z,0.40
2022-08-03T11:29:28.977Z,0.50
2022-08-03T11:32:37.655Z,0.50
2022-08-03T11:35:45.464Z,0.50
2022-08-03T11:38:31.002Z,0.40
2022-08-03T11:41:42.948Z,0.50
2022-08-03T11:44:40.897Z,0.40
2022-08-03T11:47:30.695Z,0.50
2022-08-03T11:50:17.176Z,0.40
2022-08-03T11:53:02.881Z,0.40
2022-08-03T11:55:49.191Z,0.40
2022-08-03T11:59:10.607Z,0.47
2022-08-03T12:01:42.245Z,0.43
2022-08-03T12:04:28.052Z,0.43
2022-08-03T12:07:13.484Z,0.57
2022-08-03T12:10:18.974Z,0.50
2022-08-03T12:14:10.683Z,0.43
2022-08-03T12:16:25.155Z,0.40
2022-08-03T12:19:11.527Z,0.55
2022-08-03T12:21:57.663Z,0.50
2022-08-03T12:24:46.714Z,0.50
2022-08-03T12:27:33.488Z,0.50
2022-08-03T12:30:20.764Z,0.40
2022-08-03T12:33:21.534Z,0.40
2022-08-03T12:36:09.446Z,0.40
2022-08-03T12:38:57.864Z,0.40
2022-08-03T12:41:44.099Z,0.38
2022-08-03T12:44:35.121Z,0.70
2022-08-03T12:47:21.302Z,0.50
2022-08-03T12:50:07.851Z,0.40
2022-08-03T12:52:54.614Z,0.65
2022-08-03T12:55:57.802Z,0.47
2022-08-03T12:58:47.812Z,0.40
2022-08-03T13:01:37.867Z,0.60
2022-08-03T13:04:40.571Z,0.47
2022-08-03T13:07:26.929Z,0.47
2022-08-03T13:10:27.192Z,0.70
2022-08-03T13:13:13.080Z,0.57
2022-08-03T13:15:59.275Z,0.45
2022-08-03T13:18:48.054Z,0.50
2022-08-03T13:21:34.175Z,0.37
2022-08-03T13:24:39.504Z,0.60
2022-08-03T13:28:04.598Z,0.70
2022-08-03T13:30:32.506Z,0.50
2022-08-03T13:33:18.742Z,0.50
2022-08-03T13:36:05.133Z,0.50
2022-08-03T13:38:51.482Z,0.40
2022-08-03T13:41:38.068Z,0.50
2022-08-03T13:44:29.355Z,0.30
2022-08-03T13:47:16.265Z,0.30
2022-08-03T13:50:03.083Z,0.40
2022-08-03T13:52:50.184Z,0.40
2022-08-03T13:55:36.365Z,0.40
2022-08-03T13:58:22.436Z,0.40
2022-08-03T14:01:09.826Z,0.50
2022-08-03T14:03:56.560Z,0.40
2022-08-03T14:06:45.917Z,0.47
2022-08-03T14:09:31.962Z,0.50
2022-08-03T14:12:18.145Z,0.40
2022-08-03T14:15:04.407Z,0.50
2022-08-03T14:17:50.315Z,0.35
2022-08-03T14:20:49.016Z,0.50
2022-08-03T14:23:38.099Z,0.40
2022-08-03T14:26:24.479Z,0.30
2022-08-03T14:29:10.587Z,0.40
2022-08-03T14:32:11.956Z,0.40
2022-08-03T14:34:58.414Z,0.30
2022-08-03T14:37:44.067Z,0.40
2022-08-03T14:40:30.217Z,0.40
2022-08-03T14:43:21.172Z,0.30
2022-08-03T14:46:07.081Z,0.50
2022-08-03T14:50:28.728Z,0.32
2022-08-03T14:51:59.364Z,0.30
2022-08-03T14:54:46.320Z,0.40
2022-08-03T14:57:32.452Z,0.30
2022-08-03T15:00:17.969Z,0.30
2022-08-03T15:03:05.290Z,0.30
2022-08-03T15:05:56.873Z,0.27
2022-08-03T15:08:51.433Z,0.40
2022-08-03T15:11:49.372Z,0.30
2022-08-03T15:14:35.187Z,0.50
2022-08-03T15:17:23.987Z,0.40
2022-08-03T15:20:26.594Z,0.50
2022-08-03T15:23:17.855Z,0.43
2022-08-03T15:26:30.790Z,0.40
2022-08-03T15:29:10.107Z,0.35
2022-08-03T15:32:15.780Z,0.40
2022-08-03T15:35:02.510Z,0.50
2022-08-03T15:37:48.230Z,0.40
2022-08-03T15:40:34.393Z,0.40
2022-08-03T15:43:21.561Z,0.40
2022-08-03T15:49:14.513Z,0.38
2022-08-03T15:52:01.165Z,0.40
2022-08-03T15:54:47.036Z,0.30
2022-08-03T15:57:33.544Z,0.38
2022-08-03T16:00:40.008Z,0.30
2022-08-03T16:03:28.318Z,0.45
2022-08-03T16:06:14.180Z,0.50
2022-08-03T16:09:00.315Z,0.30
2022-08-03T16:11:46.561Z,0.40
2022-08-03T16:14:43.383Z,0.40
2022-08-03T16:17:37.221Z,0.40
2022-08-03T16:20:31.295Z,0.40
2022-08-03T16:23:20.619Z,0.30
2022-08-03T16:26:09.158Z,0.50
2022-08-03T16:28:55.696Z,0.43
2022-08-03T16:31:51.294Z,0.30
2022-08-03T16:34:39.327Z,0.40
2022-08-03T16:37:41.155Z,0.43
2022-08-03T16:40:32.231Z,0.30
2022-08-03T16:43:19.602Z,0.40
2022-08-03T16:46:05.752Z,0.30
2022-08-03T16:48:51.908Z,0.30
2022-08-03T16:51:50.685Z,0.30
2022-08-03T16:54:36.811Z,0.30
2022-08-03T16:57:59.263Z,0.40
2022-08-03T17:00:33.852Z,0.30
2022-08-03T17:03:24.293Z,0.40
2022-08-03T17:06:10.829Z,0.38
2022-08-03T17:08:59.850Z,0.30
2022-08-03T17:11:49.663Z,0.35
2022-08-03T17:14:35.432Z,0.20
2022-08-03T17:17:30.491Z,0.40
2022-08-03T17:20:40.441Z,0.20
2022-08-03T17:23:43.982Z,0.30
2022-08-03T17:26:33.081Z,0.35
2022-08-03T17:29:23.189Z,0.40
2022-08-03T17:32:15.049Z,0.30
2022-08-03T17:35:05.453Z,0.30
2022-08-03T17:37:58.116Z,0.38
2022-08-03T17:40:49.977Z,0.60
2022-08-03T17:44:13.454Z,0.40
2022-08-03T17:46:46.253Z,0.28
2022-08-03T17:49:39.996Z,0.30
2022-08-03T17:52:28.706Z,0.30
2022-08-03T17:55:55.230Z,0.30
2022-08-03T17:58:53.527Z,0.30
2022-08-03T18:02:03.091Z,0.40
2022-08-03T18:08:28.846Z,0.50
2022-08-03T18:11:21.790Z,0.40
2022-08-03T18:14:33.806Z,0.32
2022-08-03T18:17:58.082Z,0.60
2022-08-03T18:20:41.045Z,0.38
2022-08-03T18:23:37.341Z,0.30
2022-08-03T18:26:24.208Z,0.38
2022-08-03T18:29:12.865Z,0.40
2022-08-03T18:32:02.815Z,0.50
2022-08-03T18:34:53.496Z,0.60
2022-08-03T18:37:52.073Z,0.43
2022-08-03T18:40:38.477Z,0.52
2022-08-03T18:43:47.332Z,1.20
2022-08-03T18:47:07.534Z,0.70
2022-08-03T18:50:19.736Z,0.73
2022-08-03T18:53:21.187Z,0.70
2022-08-03T18:56:18.789Z,0.60
2022-08-03T18:59:11.561Z,0.73
2022-08-03T19:02:21.276Z,0.50
2022-08-03T19:05:09.753Z,0.80
2022-08-03T19:08:03.332Z,0.80
2022-08-03T19:11:01.108Z,0.77
2022-08-03T19:13:51.243Z,0.70
2022-08-03T19:16:42.089Z,0.68
2022-08-03T19:19:44.230Z,0.80
2022-08-03T19:22:32.589Z,0.70
2022-08-03T19:25:19.621Z,0.70
2022-08-03T19:28:07.345Z,0.70
2022-08-03T19:30:56.590Z,0.40
2022-08-03T19:33:56.192Z,0.60
2022-08-03T19:36:45.608Z,0.50
2022-08-03T19:39:31.728Z,0.60
2022-08-03T19:42:32.014Z,0.60
2022-08-03T19:48:37.684Z,0.70
2022-08-03T19:51:58.987Z,0.85
2022-08-03T19:54:53.396Z,0.80
2022-08-03T19:57:46.780Z,0.73
2022-08-03T20:00:38.440Z,0.88
2022-08-03T20:03:43.006Z,0.80
2022-08-03T20:06:29.979Z,0.73
2022-08-03T20:09:18.472Z,0.60
2022-08-03T20:12:07.778Z,0.63
2022-08-03T20:14:58.942Z,0.60
2022-08-03T20:17:57.085Z,0.60
2022-08-03T20:20:47.971Z,0.60
2022-08-03T20:23:38.274Z,0.50
2022-08-03T20:26:53.356Z,0.60
2022-08-03T20:30:06.355Z,0.70
2022-08-03T20:32:52.633Z,0.50
2022-08-03T20:35:38.578Z,0.65
2022-08-03T20:38:28.068Z,0.40
2022-08-03T20:41:18.675Z,0.80
2022-08-03T20:44:05.331Z,0.68
2022-08-03T20:47:00.295Z,0.47
2022-08-03T20:49:47.007Z,0.50
2022-08-03T20:52:33.487Z,0.70
2022-08-03T20:55:20.294Z,0.40
2022-08-03T20:58:26.327Z,0.73
2022-08-03T21:01:13.133Z,0.80
2022-08-03T21:03:59.660Z,0.70
2022-08-03T21:06:58.023Z,0.68
2022-08-03T21:12:56.493Z,0.30
2022-08-03T21:13:09.879Z,0.50
2022-08-03T21:13:13.905Z,0.60
2022-08-03T21:13:17.074Z,0.65
2022-08-03T21:16:14.128Z,0.60
2022-08-03T21:19:03.529Z,0.52
2022-08-03T21:21:50.566Z,0.68
2022-08-03T21:24:40.368Z,0.80
2022-08-03T21:27:30.756Z,0.50
2022-08-03T21:30:18.166Z,0.95
2022-08-03T21:33:07.629Z,0.70
2022-08-03T21:35:54.284Z,1.05
2022-08-03T21:38:41.219Z,1.10
2022-08-03T21:41:29.705Z,0.90
2022-08-03T21:44:17.747Z,1.10
2022-08-03T21:47:13.257Z,0.90
2022-08-03T21:50:06.602Z,1.40
2022-08-03T21:52:55.495Z,0.90
2022-08-03T21:55:46.626Z,1.00
2022-08-03T21:58:38.262Z,1.63
2022-08-03T22:01:29.184Z,2.03
2022-08-03T22:04:50.627Z,1.60
2022-08-03T22:07:29.774Z,1.20
2022-08-03T22:10:15.563Z,1.60
2022-08-03T22:13:01.268Z,1.13
2022-08-03T22:15:48.633Z,1.63
2022-08-03T22:18:42.694Z,1.30
2022-08-03T22:21:35.927Z,0.80
2022-08-03T22:24:28.572Z,1.50
2022-08-03T22:27:30.756Z,1.60
2022-08-03T22:30:19.390Z,1.30
2022-08-03T22:33:21.365Z,1.30
2022-08-03T22:36:18.773Z,1.73
2022-08-03T22:39:04.684Z,1.10
2022-08-03T22:41:51.117Z,0.90
2022-08-03T22:44:37.177Z,1.20
2022-08-03T22:47:23.682Z,0.88
2022-08-03T22:50:32.867Z,1.17
2022-08-03T22:53:22.572Z,1.45
2022-08-03T22:56:08.765Z,1.80
2022-08-03T22:58:54.781Z,1.45
2022-08-03T23:01:43.218Z,1.20
2022-08-03T23:04:32.270Z,1.60
2022-08-03T23:07:33.963Z,1.60
2022-08-03T23:10:20.664Z,1.10
2022-08-03T23:13:07.026Z,1.38
2022-08-03T23:15:56.903Z,1.52
2022-08-03T23:18:44.195Z,1.60
2022-08-03T23:21:59.977Z,2.10
2022-08-03T23:24:38.069Z,2.20
2022-08-03T23:27:24.083Z,2.28
2022-08-03T23:30:11.263Z,2.63
2022-08-03T23:32:58.083Z,2.80
2022-08-03T23:36:20.205Z,2.53
2022-08-03T23:39:09.201Z,2.80
2022-08-03T23:41:57.344Z,3.22
2022-08-03T23:44:44.728Z,3.70
2022-08-03T23:47:46.223Z,3.15
2022-08-03T23:50:47.826Z,2.93
2022-08-03T23:53:48.807Z,3.83
2022-08-03T23:57:08.237Z,2.90
